createdAt,value
2023-04-02T00:00:16.528Z,97.30
2023-04-02T00:03:22.134Z,97.60
2023-04-02T00:06:40.407Z,97.80
2023-04-02T00:09:43.826Z,97.70
2023-04-02T00:13:04.209Z,98.10
2023-04-02T00:16:09.540Z,97.80
2023-04-02T00:19:20.502Z,97.70
2023-04-02T00:22:27.959Z,97.90
2023-04-02T00:25:35.837Z,98.10
2023-04-02T00:28:40.248Z,98.10
2023-04-02T00:31:46.216Z,97.80
2023-04-02T00:34:49.433Z,97.50
2023-04-02T00:37:52.692Z,97.50
2023-04-02T00:40:57.795Z,97.40
2023-04-02T00:44:02.731Z,97.40
2023-04-02T00:47:13.094Z,97.80
2023-04-02T00:50:24.695Z,97.50
2023-04-02T00:53:30.912Z,97.50
2023-04-02T00:56:38.518Z,97.50
2023-04-02T00:59:54.985Z,97.70
2023-04-02T01:03:29.642Z,97.60
2023-04-02T01:06:37.142Z,97.50
2023-04-02T01:09:54.669Z,97.60
2023-04-02T01:13:06.982Z,97.50
2023-04-02T01:16:18.341Z,97.60
2023-04-02T01:19:45.931Z,97.60
2023-04-02T01:22:53.456Z,97.80
2023-04-02T01:26:04.837Z,97.90
2023-04-02T01:29:14.338Z,98.00
2023-04-02T01:32:21.662Z,98.10
2023-04-02T01:35:26.735Z,98.20
2023-04-02T01:38:36.614Z,98.00
2023-04-02T01:41:46.495Z,97.90
2023-04-02T01:44:52.731Z,97.80
2023-04-02T01:47:56.541Z,97.90
2023-04-02T01:51:03.624Z,97.80
2023-04-02T01:54:07.215Z,98.00
2023-04-02T01:57:10.974Z,98.10
2023-04-02T02:00:17.807Z,97.90
2023-04-02T02:03:21.554Z,98.10
2023-04-02T02:06:24.968Z,98.10
2023-04-02T02:09:31.669Z,98.10
2023-04-02T02:12:34.539Z,98.00
2023-04-02T02:15:38.741Z,97.80
2023-04-02T02:18:41.762Z,97.90
2023-04-02T02:21:46.790Z,97.90
2023-04-02T02:24:49.972Z,98.00
2023-04-02T02:28:00.680Z,98.00
2023-04-02T02:31:08.591Z,98.10
2023-04-02T02:34:17.510Z,97.90
2023-04-02T02:37:24.721Z,98.00
2023-04-02T02:40:32.978Z,98.20
2023-04-02T02:43:38.740Z,98.40
2023-04-02T02:46:49.290Z,98.20
2023-04-02T02:49:55.187Z,98.30
2023-04-02T02:53:01.435Z,98.40
2023-04-02T02:56:04.375Z,98.20
2023-04-02T02:59:09.455Z,98.30
2023-04-02T03:02:15.407Z,98.20
2023-04-02T03:05:21.093Z,98.40
2023-04-02T03:08:30.014Z,98.40
2023-04-02T03:11:38.457Z,98.20
2023-04-02T03:14:46.263Z,98.30
2023-04-02T03:17:55.130Z,98.40
2023-04-02T03:21:01.906Z,98.10
2023-04-02T03:24:11.992Z,98.00
2023-04-02T03:27:19.318Z,98.10
2023-04-02T03:30:31.590Z,97.90
2023-04-02T03:33:39.746Z,97.90
2023-04-02T03:36:49.957Z,98.00
2023-04-02T03:39:58.009Z,97.80
2023-04-02T03:43:06.444Z,97.70
2023-04-02T03:46:27.260Z,97.50
2023-04-02T03:49:37.476Z,97.60
2023-04-02T03:52:40.957Z,97.50
2023-04-02T03:55:44.709Z,97.40
2023-04-02T03:58:53.033Z,97.40
2023-04-02T04:02:00.427Z,97.60
2023-04-02T04:05:07.330Z,97.40
2023-04-02T04:08:17.421Z,97.40
2023-04-02T04:11:24.591Z,97.70
2023-04-02T04:14:31.630Z,97.30
2023-04-02T04:17:51.469Z,97.60
2023-04-02T04:20:59.499Z,97.90
2023-04-02T04:24:04.965Z,97.60
2023-04-02T04:27:17.110Z,97.60
2023-04-02T04:30:25.672Z,97.60
2023-04-02T04:33:34.608Z,97.80
2023-04-02T04:36:54.060Z,97.80
2023-04-02T04:40:00.750Z,98.00
2023-04-02T04:43:08.218Z,97.90
2023-04-02T04:46:15.798Z,97.60
2023-04-02T04:49:24.158Z,97.70
2023-04-02T04:52:34.443Z,97.50
2023-04-02T04:55:40.651Z,97.80
2023-04-02T04:58:49.128Z,97.80
2023-04-02T05:01:58.548Z,98.00
2023-04-02T05:05:03.304Z,98.00
2023-04-02T05:08:14.309Z,98.10
2023-04-02T05:11:25.433Z,97.90
2023-04-02T05:14:34.646Z,97.80
2023-04-02T05:17:43.754Z,98.00
2023-04-02T05:20:50.642Z,98.20
2023-04-02T05:24:00.608Z,98.00
2023-04-02T05:27:13.602Z,98.20
2023-04-02T05:30:46.769Z,98.40
2023-04-02T05:33:51.130Z,98.40
2023-04-02T05:36:55.635Z,98.20
2023-04-02T05:40:06.606Z,98.20
2023-04-02T05:43:11.568Z,98.30
2023-04-02T05:46:17.975Z,98.40
2023-04-02T05:49:26.894Z,98.30
2023-04-02T05:52:35.008Z,98.20
2023-04-02T05:55:45.855Z,98.40
2023-04-02T05:58:52.469Z,98.60
2023-04-02T06:02:02.819Z,98.60
2023-04-02T06:05:12.520Z,98.90
2023-04-02T06:08:21.059Z,98.80
2023-04-02T06:11:29.414Z,98.90
2023-04-02T06:14:32.293Z,98.60
2023-04-02T06:17:47.702Z,98.90
2023-04-02T06:20:51.013Z,98.90
2023-04-02T06:23:57.290Z,99.10
2023-04-02T06:27:06.224Z,99.00
2023-04-02T06:30:18.253Z,99.10
2023-04-02T06:33:21.443Z,99.30
2023-04-02T06:36:25.843Z,99.40
2023-04-02T06:39:29.079Z,99.50
2023-04-02T06:42:36.778Z,99.50
2023-04-02T06:45:42.892Z,99.30
2023-04-02T06:48:48.077Z,99.10
2023-04-02T06:51:54.396Z,99.10
2023-04-02T06:54:57.380Z,99.40
2023-04-02T06:58:01.712Z,99.40
2023-04-02T07:01:04.862Z,99.20
2023-04-02T07:04:08.428Z,99.40
2023-04-02T07:07:11.396Z,99.50
2023-04-02T07:10:14.260Z,99.50
2023-04-02T07:13:21.638Z,99.30
2023-04-02T07:16:26.639Z,99.40
2023-04-02T07:19:29.520Z,99.30
2023-04-02T07:22:32.353Z,99.20
2023-04-02T07:25:35.417Z,99.40
2023-04-02T07:28:39.723Z,99.20
2023-04-02T07:31:42.967Z,99.20
2023-04-02T07:34:46.011Z,99.30
2023-04-02T07:37:48.881Z,99.40
2023-04-02T07:40:51.729Z,99.30
2023-04-02T07:43:55.895Z,99.20
2023-04-02T07:46:58.856Z,99.40
2023-04-02T07:50:01.847Z,99.30
2023-04-02T07:53:05.298Z,99.40
2023-04-02T07:56:08.242Z,99.10
2023-04-02T07:59:12.612Z,99.10
2023-04-02T08:02:22.573Z,99.10
2023-04-02T08:05:26.341Z,99.10
2023-04-02T08:08:29.187Z,99.20
2023-04-02T08:11:32.100Z,99.20
2023-04-02T08:14:36.318Z,99.00
2023-04-02T08:17:39.336Z,99.20
2023-04-02T08:20:42.229Z,98.80
2023-04-02T08:23:45.313Z,99.20
2023-04-02T08:26:49.467Z,99.20
2023-04-02T08:29:54.076Z,99.20
2023-04-02T08:32:57.021Z,99.00
2023-04-02T08:35:59.926Z,99.30
2023-04-02T08:39:03.369Z,99.30
2023-04-02T08:42:17.190Z,98.90
2023-04-02T08:45:27.071Z,98.90
2023-04-02T08:48:33.484Z,99.40
2023-04-02T08:51:38.238Z,99.10
2023-04-02T08:54:43.531Z,99.00
2023-04-02T08:57:50.729Z,99.30
2023-04-02T09:00:56.757Z,98.90
2023-04-02T09:04:03.153Z,98.60
2023-04-02T09:07:06.098Z,98.50
2023-04-02T09:10:16.459Z,98.40
2023-04-02T09:13:24.076Z,98.90
2023-04-02T09:16:40.418Z,98.10
2023-04-02T09:19:47.068Z,98.00
2023-04-02T09:22:53.066Z,98.40
2023-04-02T09:26:04.071Z,97.60
2023-04-02T09:29:27.316Z,97.80
2023-04-02T09:32:48.942Z,97.90
2023-04-02T09:35:57.658Z,97.10
2023-04-02T09:39:07.377Z,97.20
2023-04-02T09:42:30.826Z,96.80
2023-04-02T09:45:33.896Z,96.60
2023-04-02T09:48:43.798Z,96.30
2023-04-02T09:51:46.830Z,96.40
2023-04-02T09:55:18.669Z,96.30
2023-04-02T09:58:21.518Z,96.40
2023-04-02T10:01:30.715Z,96.00
2023-04-02T10:04:38.840Z,96.10
2023-04-02T10:07:44.374Z,96.20
2023-04-02T10:10:50.764Z,95.80
2023-04-02T10:13:57.362Z,96.20
2023-04-02T10:17:07.713Z,96.20
2023-04-02T10:20:21.087Z,95.90
2023-04-02T10:23:28.660Z,95.90
2023-04-02T10:26:47.531Z,95.60
2023-04-02T10:30:11.107Z,95.70
2023-04-02T10:33:19.514Z,94.90
2023-04-02T10:36:36.935Z,94.80
2023-04-02T10:39:45.979Z,94.60
2023-04-02T10:42:56.452Z,94.50
2023-04-02T10:46:03.849Z,94.80
2023-04-02T10:49:18.040Z,94.60
2023-04-02T10:52:27.754Z,94.30
2023-04-02T10:55:34.826Z,93.50
2023-04-02T10:58:43.591Z,92.50
2023-04-02T11:01:49.008Z,92.50
2023-04-02T11:04:55.376Z,93.00
2023-04-02T11:08:06.981Z,93.40
2023-04-02T11:11:14.989Z,93.70
2023-04-02T11:14:22.026Z,94.20
2023-04-02T11:17:26.010Z,94.30
2023-04-02T11:20:58.380Z,94.10
2023-04-02T11:24:03.691Z,94.30
2023-04-02T11:27:14.752Z,94.80
2023-04-02T11:30:23.834Z,95.00
2023-04-02T11:33:44.752Z,95.20
2023-04-02T11:37:03.977Z,95.50
2023-04-02T11:40:44.672Z,95.90
2023-04-02T11:44:00.417Z,96.30
2023-04-02T11:47:20.567Z,95.40
2023-04-02T11:50:31.041Z,95.40
2023-04-02T11:53:35.703Z,94.10
2023-04-02T11:56:48.139Z,94.20
2023-04-02T12:00:08.744Z,93.60
2023-04-02T12:03:32.630Z,93.70
2023-04-02T12:06:49.439Z,93.10
2023-04-02T12:09:55.055Z,91.90
2023-04-02T12:12:57.988Z,92.30
2023-04-02T12:16:02.363Z,92.30
2023-04-02T12:19:10.469Z,92.40
2023-04-02T12:22:20.925Z,92.60
2023-04-02T12:25:29.314Z,91.70
2023-04-02T12:28:33.892Z,91.30
2023-04-02T12:31:43.289Z,91.20
2023-04-02T12:34:47.114Z,91.20
2023-04-02T12:37:53.987Z,92.00
2023-04-02T12:40:58.712Z,93.90
2023-04-02T12:44:03.260Z,96.90
2023-04-02T12:47:07.617Z,96.80
2023-04-02T12:50:16.479Z,97.20
2023-04-02T12:53:25.152Z,97.40
2023-04-02T12:56:28.059Z,98.60
2023-04-02T12:59:35.890Z,99.50
2023-04-02T13:02:47.650Z,98.60
2023-04-02T13:05:54.937Z,99.60
2023-04-02T13:08:58.705Z,98.40
2023-04-02T13:12:01.944Z,99.60
2023-04-02T13:15:09.123Z,99.70
2023-04-02T13:18:22.693Z,99.90
2023-04-02T13:21:28.655Z,99.60
2023-04-02T13:24:33.141Z,99.90
2023-04-02T13:27:36.018Z,99.90
2023-04-02T13:30:38.929Z,99.40
2023-04-02T13:33:43.134Z,99.30
2023-04-02T13:36:46.402Z,99.20
2023-04-02T13:39:49.202Z,99.30
2023-04-02T13:42:52.259Z,99.90
2023-04-02T13:45:56.431Z,99.90
2023-04-02T13:49:01.085Z,99.90
2023-04-02T13:52:05.300Z,99.90
2023-04-02T13:55:10.284Z,99.90
2023-04-02T13:58:13.151Z,99.90
2023-04-02T14:01:17.323Z,99.90
2023-04-02T14:04:25.622Z,99.50
2023-04-02T14:07:48.131Z,99.80
2023-04-02T14:11:07.482Z,99.90
2023-04-02T14:14:28.874Z,99.90
2023-04-02T14:17:43.374Z,99.40
2023-04-02T14:20:55.744Z,99.90
2023-04-02T14:24:14.251Z,99.90
2023-04-02T14:27:29.337Z,99.90
2023-04-02T14:30:41.746Z,99.80
2023-04-02T14:33:55.217Z,99.90
2023-04-02T14:37:07.842Z,99.90
2023-04-02T14:40:20.517Z,99.90
2023-04-02T14:43:26.197Z,99.90
2023-04-02T14:46:31.648Z,99.90
2023-04-02T14:49:41.625Z,99.90
2023-04-02T14:52:51.542Z,99.90
2023-04-02T14:55:55.936Z,99.90
2023-04-02T14:59:10.271Z,99.90
2023-04-02T15:02:22.119Z,99.90
2023-04-02T15:05:29.492Z,99.90
2023-04-02T15:08:40.638Z,99.90
2023-04-02T15:11:49.292Z,99.90
2023-04-02T15:14:57.861Z,99.90
2023-04-02T15:18:03.364Z,99.90
2023-04-02T15:21:25.545Z,99.90
2023-04-02T15:24:36.832Z,99.90
2023-04-02T15:28:00.136Z,99.90
2023-04-02T15:31:11.201Z,99.90
2023-04-02T15:34:24.738Z,99.90
2023-04-02T15:37:33.954Z,99.90
2023-04-02T15:40:49.837Z,99.90
2023-04-02T15:44:00.232Z,99.90
2023-04-02T15:47:13.157Z,99.90
2023-04-02T15:50:36.212Z,99.90
2023-04-02T15:53:49.844Z,99.90
2023-04-02T15:57:07.309Z,99.90
2023-04-02T16:00:22.279Z,99.90
2023-04-02T16:03:50.532Z,99.90
2023-04-02T16:07:20.291Z,99.90
2023-04-02T16:10:40.130Z,99.90
2023-04-02T16:13:47.050Z,99.90
2023-04-02T16:16:52.748Z,99.90
2023-04-02T16:20:02.073Z,99.90
2023-04-02T16:23:12.318Z,99.90
2023-04-02T16:26:34.516Z,99.90
2023-04-02T16:29:56.323Z,99.90
2023-04-02T16:33:09.977Z,99.90
2023-04-02T16:36:27.119Z,99.90
2023-04-02T16:39:37.644Z,99.90
2023-04-02T16:42:48.226Z,99.90
2023-04-02T16:46:00.592Z,99.90
2023-04-02T16:49:13.380Z,99.90
2023-04-02T16:52:30.930Z,99.90
2023-04-02T16:55:44.371Z,99.90
2023-04-02T16:58:54.424Z,99.90
2023-04-02T17:02:04.680Z,99.90
2023-04-02T17:05:15.563Z,99.90
2023-04-02T17:08:24.005Z,99.90
2023-04-02T17:11:37.588Z,99.90
2023-04-02T17:14:47.442Z,99.90
2023-04-02T17:17:51.732Z,99.90
2023-04-02T17:21:05.637Z,99.90
2023-04-02T17:24:21.263Z,99.90
2023-04-02T17:27:29.434Z,99.90
2023-04-02T17:30:40.076Z,99.90
2023-04-02T17:33:44.244Z,99.90
2023-04-02T17:36:55.503Z,99.90
2023-04-02T17:40:07.688Z,99.90
2023-04-02T17:43:19.114Z,99.90
2023-04-02T17:46:35.494Z,99.90
2023-04-02T17:49:47.707Z,99.30
2023-04-02T17:52:58.223Z,99.60
2023-04-02T17:56:10.815Z,99.90
2023-04-02T17:59:26.310Z,99.90
2023-04-02T18:02:54.978Z,99.90
2023-04-02T18:06:05.904Z,99.60
2023-04-02T18:09:24.077Z,99.90
2023-04-02T18:12:41.432Z,99.90
2023-04-02T18:15:57.405Z,99.90
2023-04-02T18:19:09.567Z,99.90
2023-04-02T18:22:19.463Z,99.70
2023-04-02T18:25:40.611Z,98.30
2023-04-02T18:28:53.710Z,98.20
2023-04-02T18:32:07.777Z,98.40
2023-04-02T18:35:21.282Z,98.00
2023-04-02T18:38:32.506Z,98.30
2023-04-02T18:41:46.965Z,98.50
2023-04-02T18:44:59.604Z,98.60
2023-04-02T18:48:10.346Z,99.00
2023-04-02T18:51:19.648Z,98.90
2023-04-02T18:54:28.365Z,98.80
2023-04-02T18:57:34.503Z,97.80
2023-04-02T19:00:41.041Z,98.60
2023-04-02T19:03:48.122Z,98.40
2023-04-02T19:06:55.587Z,98.50
2023-04-02T19:10:07.153Z,98.50
2023-04-02T19:13:15.440Z,98.20
2023-04-02T19:16:43.945Z,97.70
2023-04-02T19:19:58.130Z,98.10
2023-04-02T19:23:12.623Z,97.40
2023-04-02T19:26:19.374Z,97.50
2023-04-02T19:29:32.850Z,97.20
2023-04-02T19:32:45.154Z,96.60
2023-04-02T19:35:53.798Z,96.10
2023-04-02T19:39:09.696Z,96.40
2023-04-02T19:42:21.387Z,95.40
2023-04-02T19:45:34.706Z,95.30
2023-04-02T19:48:53.922Z,94.80
2023-04-02T19:51:57.314Z,95.20
2023-04-02T19:55:00.186Z,94.60
2023-04-02T19:58:18.832Z,95.10
2023-04-02T20:01:22.341Z,94.70
2023-04-02T20:04:25.497Z,94.60
2023-04-02T20:07:28.713Z,94.80
2023-04-02T20:10:31.596Z,94.90
2023-04-02T20:13:36.268Z,95.10
2023-04-02T20:16:39.292Z,95.10
2023-04-02T20:19:42.167Z,95.00
2023-04-02T20:22:45.091Z,94.00
2023-04-02T20:25:52.680Z,94.40
2023-04-02T20:28:57.229Z,94.00
2023-04-02T20:32:00.103Z,93.70
2023-04-02T20:35:03.028Z,94.20
2023-04-02T20:38:08.029Z,94.70
2023-04-02T20:41:10.957Z,94.40
2023-04-02T20:44:15.910Z,94.90
2023-04-02T20:47:19.277Z,94.50
2023-04-02T20:50:22.288Z,94.70
2023-04-02T20:53:25.644Z,94.20
2023-04-02T20:56:29.434Z,94.50
2023-04-02T20:59:33.704Z,94.50
2023-04-02T21:02:36.831Z,94.10
2023-04-02T21:05:44.784Z,94.30
2023-04-02T21:08:48.336Z,94.30
2023-04-02T21:11:51.546Z,94.20
2023-04-02T21:15:00.238Z,93.90
2023-04-02T21:18:04.888Z,94.20
2023-04-02T21:21:08.275Z,94.40
2023-04-02T21:24:11.717Z,94.10
2023-04-02T21:27:14.562Z,93.20
2023-04-02T21:30:19.224Z,93.40
2023-04-02T21:33:22.054Z,93.80
2023-04-02T21:36:26.735Z,93.50
2023-04-02T21:39:29.841Z,93.10
2023-04-02T21:42:32.982Z,93.40
2023-04-02T21:45:38.067Z,92.70
2023-04-02T21:48:41.906Z,92.80
2023-04-02T21:51:46.633Z,93.10
2023-04-02T21:54:49.962Z,93.30
2023-04-02T21:57:53.179Z,93.40
2023-04-02T22:00:57.678Z,93.30
2023-04-02T22:04:02.942Z,94.00
2023-04-02T22:07:05.965Z,93.90
2023-04-02T22:10:09.619Z,93.90
2023-04-02T22:13:12.564Z,94.60
2023-04-02T22:16:18.398Z,94.80
2023-04-02T22:19:21.843Z,95.00
2023-04-02T22:22:25.267Z,94.90
2023-04-02T22:25:28.360Z,95.40
2023-04-02T22:28:31.529Z,95.60
2023-04-02T22:31:36.855Z,95.80
2023-04-02T22:34:45.398Z,96.20
2023-04-02T22:37:48.468Z,96.30
2023-04-02T22:40:51.529Z,96.30
2023-04-02T22:43:55.594Z,96.60
2023-04-02T22:46:59.775Z,97.00
2023-04-02T22:50:02.726Z,97.20
2023-04-02T22:53:05.965Z,97.50
2023-04-02T22:56:10.845Z,97.30
2023-04-02T22:59:13.803Z,97.40
2023-04-02T23:02:18.998Z,97.00
2023-04-02T23:05:22.072Z,97.80
2023-04-02T23:08:24.962Z,97.70
2023-04-02T23:11:29.112Z,97.50
2023-04-02T23:14:32.242Z,97.50
2023-04-02T23:17:37.732Z,97.40
2023-04-02T23:20:41.698Z,97.60
2023-04-02T23:23:45.237Z,97.60
2023-04-02T23:26:48.204Z,97.90
2023-04-02T23:29:51.921Z,98.10
2023-04-02T23:32:56.271Z,97.40
2023-04-02T23:35:59.473Z,97.50
2023-04-02T23:39:05.551Z,97.70
2023-04-02T23:42:09.512Z,97.60
2023-04-02T23:45:12.646Z,97.90
2023-04-02T23:48:17.108Z,97.30
2023-04-02T23:51:20.263Z,97.10
2023-04-02T23:54:23.217Z,97.40
2023-04-02T23:57:26.260Z,97.50
